Time;durP1;ratioP1;P1;durP2;ratioP2;P2;SDS_P1;SDS_P2;PMS_P1;PMS_P2;Temp;Humidity;BMP_temperature;BMP_pressure;BME280_temperature;BME280_humidity;BME280_pressure;Samples;Min_cycle;Max_cycle;Signal;HPM_P1;HPM_P2
2023/04/07 00:00:07;;;;;;;15.82;8.93;;;;;;;;;;5030924;28;20056;-64
2023/04/07 00:02:33;;;;;;;12.77;7.93;;;;;;;;;;5031735;28;20046;-65
2023/04/07 00:05:01;;;;;;;12.95;7.40;;;;;;;;;;5030634;28;20046;-66
2023/04/07 00:07:28;;;;;;;12.38;8.32;;;;;;;;;;5030587;28;20053;-66
2023/04/07 00:09:54;;;;;;;11.82;7.75;;;;;;;;;;5030847;28;20093;-64
2023/04/07 00:12:22;;;;;;;10.32;7.55;;;;;;;;;;5032214;28;20045;-65
2023/04/07 00:14:49;;;;;;;11.15;7.38;;;;;;;;;;5030628;28;20059;-66
2023/04/07 00:17:15;;;;;;;15.52;8.05;;;;;;;;;;5030524;28;20052;-65
2023/04/07 00:19:42;;;;;;;10.38;7.07;;;;;;;;;;5030489;28;20052;-66
2023/04/07 00:22:09;;;;;;;12.82;7.85;;;;;;;;;;5030448;28;20045;-65
2023/04/07 00:24:35;;;;;;;11.27;7.97;;;;;;;;;;5030273;28;20045;-66
2023/04/07 00:27:02;;;;;;;11.48;8.10;;;;;;;;;;5030586;28;20119;-65
2023/04/07 00:29:30;;;;;;;12.88;7.93;;;;;;;;;;5030419;28;20301;-66
2023/04/07 00:31:56;;;;;;;12.32;7.68;;;;;;;;;;5030662;28;20054;-66
2023/04/07 00:34:23;;;;;;;11.40;7.95;;;;;;;;;;5030593;28;20152;-65
2023/04/07 00:36:51;;;;;;;12.13;7.75;;;;;;;;;;5030666;28;20049;-65
2023/04/07 00:39:18;;;;;;;11.18;7.65;;;;;;;;;;5030412;28;20132;-64
2023/04/07 00:41:44;;;;;;;12.38;7.40;;;;;;;;;;5030387;28;20087;-65
2023/04/07 00:44:11;;;;;;;13.52;8.15;;;;;;;;;;5029964;28;20380;-66
2023/04/07 00:46:39;;;;;;;10.55;7.18;;;;;;;;;;5030099;28;20041;-65
2023/04/07 00:49:06;;;;;;;11.18;7.78;;;;;;;;;;5029721;28;20410;-65
2023/04/07 00:51:33;;;;;;;14.55;9.32;;;;;;;;;;5030251;28;20053;-65
2023/04/07 00:54:00;;;;;;;13.77;8.43;;;;;;;;;;5030188;28;20514;-66
2023/04/07 00:56:27;;;;;;;10.85;7.50;;;;;;;;;;5029680;28;20080;-66
2023/04/07 00:58:54;;;;;;;11.77;7.45;;;;;;;;;;5030045;28;20047;-66
2023/04/07 01:01:24;;;;;;;13.13;7.63;;;;;;;;;;5029903;28;20487;-66
2023/04/07 01:03:58;;;;;;;13.40;8.13;;;;;;;;;;5030309;28;20188;-66
2023/04/07 01:06:29;;;;;;;11.63;7.93;;;;;;;;;;5030011;28;20048;-66
2023/04/07 01:09:04;;;;;;;12.95;8.65;;;;;;;;;;5030000;28;20050;-66
2023/04/07 01:11:36;;;;;;;12.60;8.18;;;;;;;;;;5029856;28;20063;-65
2023/04/07 01:14:04;;;;;;;12.77;8.00;;;;;;;;;;5029707;28;20041;-65
2023/04/07 01:16:35;;;;;;;15.02;8.02;;;;;;;;;;5029800;28;20163;-65
2023/04/07 01:19:14;;;;;;;12.48;8.07;;;;;;;;;;5032872;28;20104;-66
2023/04/07 01:21:43;;;;;;;13.18;7.80;;;;;;;;;;5034091;28;20252;-66
2023/04/07 01:24:34;;;;;;;11.57;8.05;;;;;;;;;;5033909;28;20045;-66
2023/04/07 01:27:13;;;;;;;13.82;7.80;;;;;;;;;;5033509;28;20057;-65
2023/04/07 01:29:46;;;;;;;12.85;8.27;;;;;;;;;;5034048;28;20491;-66
2023/04/07 01:32:14;;;;;;;16.13;9.43;;;;;;;;;;5033832;28;20060;-66
2023/04/07 01:34:42;;;;;;;16.98;9.93;;;;;;;;;;5033462;28;20050;-66
2023/04/07 01:37:09;;;;;;;14.68;8.82;;;;;;;;;;5033158;28;20045;-66
2023/04/07 01:39:38;;;;;;;14.32;8.90;;;;;;;;;;5034027;28;20053;-66
2023/04/07 01:42:06;;;;;;;14.25;8.95;;;;;;;;;;5033757;28;20046;-66
2023/04/07 01:44:34;;;;;;;14.60;8.90;;;;;;;;;;5033455;28;20049;-64
2023/04/07 01:47:02;;;;;;;14.27;8.43;;;;;;;;;;5033209;28;20045;-66
2023/04/07 01:49:30;;;;;;;12.98;8.65;;;;;;;;;;5033315;28;20224;-66
2023/04/07 01:51:58;;;;;;;14.23;8.68;;;;;;;;;;5033332;28;20127;-65
2023/04/07 01:54:26;;;;;;;13.48;8.68;;;;;;;;;;5033287;28;20049;-66
2023/04/07 01:56:52;;;;;;;11.20;7.65;;;;;;;;;;5032776;28;20045;-66
2023/04/07 01:59:19;;;;;;;13.35;8.05;;;;;;;;;;5033260;28;20081;-66
2023/04/07 02:01:46;;;;;;;12.68;8.05;;;;;;;;;;5032785;28;20052;-65
2023/04/07 02:04:20;;;;;;;13.65;7.85;;;;;;;;;;5032903;28;20045;-66
2023/04/07 02:06:51;;;;;;;12.05;7.38;;;;;;;;;;5032758;28;20141;-65
2023/04/07 02:09:21;;;;;;;12.07;7.32;;;;;;;;;;5033203;28;20487;-65
2023/04/07 02:11:49;;;;;;;12.23;7.60;;;;;;;;;;5032885;28;20475;-66
2023/04/07 02:14:17;;;;;;;13.13;7.63;;;;;;;;;;5032915;28;20049;-65
2023/04/07 02:16:45;;;;;;;10.05;7.18;;;;;;;;;;5032554;28;20418;-66
2023/04/07 02:19:12;;;;;;;12.70;7.65;;;;;;;;;;5032635;28;20051;-66
2023/04/07 02:21:40;;;;;;;12.85;7.93;;;;;;;;;;5032951;28;20046;-64
2023/04/07 02:24:08;;;;;;;13.20;7.53;;;;;;;;;;5032700;28;20060;-66
2023/04/07 02:26:35;;;;;;;10.77;7.68;;;;;;;;;;5032767;28;20053;-64
2023/04/07 02:29:02;;;;;;;12.82;7.60;;;;;;;;;;5031799;28;20091;-66
2023/04/07 02:31:28;;;;;;;14.93;7.80;;;;;;;;;;5033070;28;20656;-66
2023/04/07 02:33:55;;;;;;;11.82;8.27;;;;;;;;;;5032292;28;20514;-66
2023/04/07 02:36:21;;;;;;;10.70;7.68;;;;;;;;;;5032728;28;20050;-66
2023/04/07 02:38:49;;;;;;;11.88;7.10;;;;;;;;;;5032449;28;20046;-66
2023/04/07 02:41:16;;;;;;;12.30;8.05;;;;;;;;;;5032709;28;20072;-66
2023/04/07 02:43:42;;;;;;;11.90;7.35;;;;;;;;;;5031761;28;20048;-65
2023/04/07 02:46:09;;;;;;;13.52;8.50;;;;;;;;;;5032846;28;20466;-65
2023/04/07 02:48:36;;;;;;;12.52;7.75;;;;;;;;;;5032530;28;20049;-66
2023/04/07 02:51:02;;;;;;;14.43;8.48;;;;;;;;;;5032653;28;20076;-66
2023/04/07 02:53:29;;;;;;;13.52;8.20;;;;;;;;;;5032082;28;20057;-64
2023/04/07 02:55:57;;;;;;;13.43;8.13;;;;;;;;;;5032268;28;20045;-66
2023/04/07 02:58:24;;;;;;;15.77;9.80;;;;;;;;;;5031378;28;20049;-65
2023/04/07 03:00:50;;;;;;;15.15;8.90;;;;;;;;;;5032524;28;20049;-66
2023/04/07 03:03:17;;;;;;;12.02;8.35;;;;;;;;;;5031902;28;20079;-65
2023/04/07 03:05:43;;;;;;;15.57;8.57;;;;;;;;;;5032101;28;20071;-65
2023/04/07 03:08:10;;;;;;;13.90;8.23;;;;;;;;;;5031901;28;20045;-65
2023/04/07 03:10:37;;;;;;;13.82;8.80;;;;;;;;;;5031905;28;20693;-65
2023/04/07 03:13:04;;;;;;;16.08;9.77;;;;;;;;;;5031690;28;20431;-66
2023/04/07 03:15:31;;;;;;;15.55;8.50;;;;;;;;;;5031816;28;20049;-65
2023/04/07 03:17:58;;;;;;;12.98;8.45;;;;;;;;;;5031703;28;20045;-66
2023/04/07 03:20:24;;;;;;;15.85;8.88;;;;;;;;;;5031573;28;20147;-65
2023/04/07 03:22:51;;;;;;;17.02;9.23;;;;;;;;;;5031706;28;20056;-65
2023/04/07 03:25:18;;;;;;;13.60;8.52;;;;;;;;;;5031810;28;20056;-66
2023/04/07 03:27:45;;;;;;;14.77;8.82;;;;;;;;;;5031249;28;20132;-65
2023/04/07 03:30:13;;;;;;;13.43;8.75;;;;;;;;;;5031191;28;20132;-65
2023/04/07 03:32:40;;;;;;;13.35;8.10;;;;;;;;;;5031635;28;20104;-66
2023/04/07 03:35:07;;;;;;;12.63;8.82;;;;;;;;;;5030918;28;20049;-64
2023/04/07 03:37:34;;;;;;;12.18;8.40;;;;;;;;;;5031325;28;20046;-65
2023/04/07 03:40:00;;;;;;;14.43;9.05;;;;;;;;;;5030537;28;20495;-65
2023/04/07 03:42:27;;;;;;;13.82;9.00;;;;;;;;;;5031413;28;20411;-66
2023/04/07 03:44:53;;;;;;;15.93;9.45;;;;;;;;;;5030966;28;20406;-66
2023/04/07 03:47:22;;;;;;;14.63;9.10;;;;;;;;;;5031394;28;20045;-66
2023/04/07 03:49:48;;;;;;;17.80;9.25;;;;;;;;;;5031032;28;20123;-66
2023/04/07 03:52:15;;;;;;;16.13;9.35;;;;;;;;;;5031485;28;20419;-64
2023/04/07 03:54:42;;;;;;;14.65;9.45;;;;;;;;;;5031204;28;20095;-66
2023/04/07 03:57:09;;;;;;;15.25;9.25;;;;;;;;;;5030672;28;20052;-66
2023/04/07 03:59:36;;;;;;;17.10;9.75;;;;;;;;;;5031278;28;20041;-65
2023/04/07 04:02:02;;;;;;;14.65;9.95;;;;;;;;;;5030795;28;20072;-66
2023/04/07 04:04:30;;;;;;;15.05;10.20;;;;;;;;;;5030905;28;20506;-66
2023/04/07 04:06:57;;;;;;;13.65;9.07;;;;;;;;;;5030337;28;20483;-65
2023/04/07 04:09:23;;;;;;;13.88;9.65;;;;;;;;;;5031089;28;20167;-65
2023/04/07 04:11:50;;;;;;;17.50;10.02;;;;;;;;;;5030730;28;20399;-65
2023/04/07 04:14:16;;;;;;;14.07;9.82;;;;;;;;;;5030780;28;20056;-65
2023/04/07 04:16:43;;;;;;;16.25;10.32;;;;;;;;;;5030553;28;20049;-66
2023/04/07 04:19:10;;;;;;;19.17;9.80;;;;;;;;;;5030491;28;20048;-65
2023/04/07 04:21:38;;;;;;;19.00;10.23;;;;;;;;;;5030286;28;20438;-65
2023/04/07 04:24:05;;;;;;;17.08;9.57;;;;;;;;;;5030750;28;20056;-65
2023/04/07 04:26:31;;;;;;;16.63;10.07;;;;;;;;;;5030389;28;20110;-66
2023/04/07 04:28:58;;;;;;;17.33;10.27;;;;;;;;;;5030381;28;20045;-66
2023/04/07 04:31:25;;;;;;;16.20;10.07;;;;;;;;;;5030397;28;20438;-65
2023/04/07 04:33:52;;;;;;;16.27;9.32;;;;;;;;;;5042668;22;20344;-66
2023/04/07 04:36:18;;;;;;;13.98;9.68;;;;;;;;;;5030034;28;20100;-66
2023/04/07 04:38:47;;;;;;;16.02;10.27;;;;;;;;;;5030182;28;20327;-66
2023/04/07 04:41:14;;;;;;;15.38;10.48;;;;;;;;;;5030418;28;20049;-67
2023/04/07 04:43:40;;;;;;;18.08;10.50;;;;;;;;;;5030074;28;20049;-67
2023/04/07 04:46:08;;;;;;;17.60;9.73;;;;;;;;;;5030401;28;20049;-67
2023/04/07 04:48:34;;;;;;;15.38;9.77;;;;;;;;;;5029657;28;20081;-67
2023/04/07 04:51:01;;;;;;;17.95;10.23;;;;;;;;;;5030172;28;20049;-67
2023/04/07 04:53:28;;;;;;;14.88;9.25;;;;;;;;;;5029262;28;20064;-67
2023/04/07 04:55:56;;;;;;;16.10;9.90;;;;;;;;;;5030501;28;20662;-67
2023/04/07 04:58:23;;;;;;;17.27;10.60;;;;;;;;;;5030083;28;20085;-67
2023/04/07 05:00:49;;;;;;;18.27;10.20;;;;;;;;;;5030632;28;20045;-67
2023/04/07 05:03:16;;;;;;;17.98;10.25;;;;;;;;;;5029568;28;20520;-67
2023/04/07 05:05:42;;;;;;;17.58;10.25;;;;;;;;;;5030138;28;20213;-67
2023/04/07 05:08:11;;;;;;;15.70;9.57;;;;;;;;;;5029905;28;20447;-67
2023/04/07 05:10:38;;;;;;;16.75;9.52;;;;;;;;;;5029977;28;20052;-67
2023/04/07 05:13:06;;;;;;;12.15;8.25;;;;;;;;;;5029569;28;20115;-67
2023/04/07 05:15:33;;;;;;;13.90;7.65;;;;;;;;;;5029763;28;20411;-67
2023/04/07 05:18:00;;;;;;;15.00;7.75;;;;;;;;;;5029174;28;20549;-67
2023/04/07 05:20:26;;;;;;;14.38;7.97;;;;;;;;;;5029983;28;20553;-68
2023/04/07 05:22:53;;;;;;;15.00;8.45;;;;;;;;;;5029475;28;20045;-67
2023/04/07 05:25:20;;;;;;;14.85;8.77;;;;;;;;;;5029818;28;20073;-67
2023/04/07 05:27:46;;;;;;;15.23;8.20;;;;;;;;;;5029634;28;20294;-67
2023/04/07 05:30:15;;;;;;;14.75;8.68;;;;;;;;;;5029749;28;20045;-67
2023/04/07 05:32:42;;;;;;;15.30;8.23;;;;;;;;;;5030245;28;20452;-67
2023/04/07 05:35:09;;;;;;;12.75;7.75;;;;;;;;;;5029459;28;20107;-67
2023/04/07 05:37:36;;;;;;;16.75;9.38;;;;;;;;;;5029690;28;20049;-67
2023/04/07 05:40:03;;;;;;;15.18;9.05;;;;;;;;;;5029567;28;20068;-67
2023/04/07 05:42:30;;;;;;;13.13;8.32;;;;;;;;;;5029734;28;20046;-67
2023/04/07 05:44:56;;;;;;;14.45;9.05;;;;;;;;;;5029026;28;20168;-67
2023/04/07 05:47:24;;;;;;;13.70;9.15;;;;;;;;;;5029942;28;20530;-68
2023/04/07 05:49:51;;;;;;;16.75;9.68;;;;;;;;;;5029370;28;20050;-67
2023/04/07 05:52:18;;;;;;;19.23;9.77;;;;;;;;;;5029658;28;20442;-67
2023/04/07 05:54:45;;;;;;;18.42;10.48;;;;;;;;;;5029162;28;20529;-67
2023/04/07 05:57:11;;;;;;;19.20;10.82;;;;;;;;;;5029513;28;20049;-67
2023/04/07 05:59:38;;;;;;;20.48;10.57;;;;;;;;;;5029111;28;20140;-67
2023/04/07 06:02:05;;;;;;;18.27;11.18;;;;;;;;;;5029849;28;20076;-67
2023/04/07 06:04:34;;;;;;;18.90;11.50;;;;;;;;;;5031334;28;20137;-67
2023/04/07 06:07:01;;;;;;;21.50;11.70;;;;;;;;;;5033429;28;20045;-67
2023/04/07 06:09:27;;;;;;;20.65;10.82;;;;;;;;;;5032856;28;20073;-67
2023/04/07 06:11:55;;;;;;;20.70;11.88;;;;;;;;;;5033648;28;20462;-67
2023/04/07 06:14:22;;;;;;;18.10;11.23;;;;;;;;;;5033199;28;20049;-67
2023/04/07 06:16:49;;;;;;;18.67;11.25;;;;;;;;;;5032932;28;20335;-67
2023/04/07 06:19:16;;;;;;;20.35;11.30;;;;;;;;;;5033124;28;20045;-67
2023/04/07 06:21:44;;;;;;;16.27;10.57;;;;;;;;;;5033009;28;20053;-67
2023/04/07 06:24:11;;;;;;;18.25;10.43;;;;;;;;;;5032685;28;20296;-67
2023/04/07 06:26:39;;;;;;;17.40;10.40;;;;;;;;;;5032493;28;20050;-67
2023/04/07 06:29:06;;;;;;;17.70;10.52;;;;;;;;;;5032852;28;20052;-67
2023/04/07 06:31:33;;;;;;;15.20;10.07;;;;;;;;;;5032898;28;20142;-67
2023/04/07 06:33:59;;;;;;;17.48;10.68;;;;;;;;;;5032649;28;20410;-67
2023/04/07 06:36:27;;;;;;;17.38;9.57;;;;;;;;;;5032348;28;20077;-67
2023/04/07 06:38:56;;;;;;;15.68;10.18;;;;;;;;;;5032811;28;20105;-67
2023/04/07 06:41:23;;;;;;;18.52;11.30;;;;;;;;;;5032272;28;20511;-66
2023/04/07 06:43:51;;;;;;;17.50;10.52;;;;;;;;;;5032723;28;20052;-67
2023/04/07 06:46:18;;;;;;;18.25;10.13;;;;;;;;;;5032322;28;20103;-66
2023/04/07 06:48:45;;;;;;;16.23;9.43;;;;;;;;;;5032156;28;20049;-66
2023/04/07 06:51:12;;;;;;;15.63;9.13;;;;;;;;;;5032308;28;20053;-66
2023/04/07 06:53:40;;;;;;;16.23;9.10;;;;;;;;;;5032000;28;20049;-66
2023/04/07 06:56:10;;;;;;;13.95;8.60;;;;;;;;;;5032062;28;20045;-66
2023/04/07 06:58:37;;;;;;;15.35;8.20;;;;;;;;;;5032227;28;20050;-66
2023/04/07 07:01:06;;;;;;;12.40;8.75;;;;;;;;;;5032130;28;20045;-66
2023/04/07 07:03:33;;;;;;;13.07;7.82;;;;;;;;;;5032163;28;20076;-66
2023/04/07 07:06:01;;;;;;;14.07;8.50;;;;;;;;;;5032335;28;20542;-66
2023/04/07 07:08:29;;;;;;;12.70;7.70;;;;;;;;;;5031809;28;20148;-66
2023/04/07 07:10:56;;;;;;;9.65;6.72;;;;;;;;;;5032418;28;20045;-66
2023/04/07 07:13:26;;;;;;;14.13;7.50;;;;;;;;;;5032417;28;20049;-66
2023/04/07 07:15:53;;;;;;;12.38;7.70;;;;;;;;;;5031226;28;20049;-66
2023/04/07 07:18:20;;;;;;;14.75;8.63;;;;;;;;;;5031422;28;20056;-66
2023/04/07 07:20:46;;;;;;;13.02;7.88;;;;;;;;;;5031798;28;20418;-67
2023/04/07 07:23:13;;;;;;;16.23;8.13;;;;;;;;;;5031613;28;20053;-67
2023/04/07 07:25:39;;;;;;;11.20;7.35;;;;;;;;;;5031974;28;20491;-67
2023/04/07 07:28:08;;;;;;;12.25;7.18;;;;;;;;;;5031251;28;20103;-67
2023/04/07 07:30:36;;;;;;;12.75;7.55;;;;;;;;;;5031841;28;20513;-67
2023/04/07 07:33:02;;;;;;;10.48;7.28;;;;;;;;;;5031286;28;20050;-67
2023/04/07 07:35:31;;;;;;;11.80;7.32;;;;;;;;;;5031186;28;20046;-67
2023/04/07 07:37:58;;;;;;;11.88;7.22;;;;;;;;;;5031003;28;20093;-67
2023/04/07 07:40:25;;;;;;;10.70;6.60;;;;;;;;;;5031496;28;20050;-67
2023/04/07 07:42:51;;;;;;;10.13;7.00;;;;;;;;;;5031127;28;20045;-67
2023/04/07 07:45:18;;;;;;;11.30;7.55;;;;;;;;;;5031334;28;20056;-67
2023/04/07 07:47:46;;;;;;;11.05;7.13;;;;;;;;;;5030753;28;20462;-67
2023/04/07 07:50:13;;;;;;;9.00;6.40;;;;;;;;;;5031397;28;20059;-67
2023/04/07 07:52:40;;;;;;;10.70;6.22;;;;;;;;;;5031119;28;20078;-67
2023/04/07 07:55:07;;;;;;;11.40;6.97;;;;;;;;;;5031273;28;20064;-67
2023/04/07 07:57:35;;;;;;;10.85;6.80;;;;;;;;;;5030724;28;20059;-67
2023/04/07 08:00:02;;;;;;;10.52;6.68;;;;;;;;;;5031163;28;20526;-67
2023/04/07 08:02:30;;;;;;;9.52;6.78;;;;;;;;;;5030906;28;20525;-67
2023/04/07 08:04:58;;;;;;;12.38;6.85;;;;;;;;;;5030685;28;20135;-67
2023/04/07 08:07:26;;;;;;;10.52;6.65;;;;;;;;;;5031046;28;20466;-67
2023/04/07 08:09:52;;;;;;;10.05;6.53;;;;;;;;;;5030838;28;20211;-67
2023/04/07 08:12:19;;;;;;;9.35;6.57;;;;;;;;;;5030942;28;20051;-67
2023/04/07 08:14:46;;;;;;;12.13;7.25;;;;;;;;;;5030370;28;20073;-67
2023/04/07 08:17:12;;;;;;;9.63;6.32;;;;;;;;;;5030602;28;20472;-67
2023/04/07 08:19:39;;;;;;;11.15;6.22;;;;;;;;;;5031008;28;20050;-67
2023/04/07 08:22:07;;;;;;;9.38;6.47;;;;;;;;;;5031041;28;20137;-67
2023/04/07 08:24:34;;;;;;;9.30;6.43;;;;;;;;;;5030200;28;20045;-67
2023/04/07 08:27:01;;;;;;;9.45;5.82;;;;;;;;;;5030471;28;20049;-67
2023/04/07 08:29:28;;;;;;;8.40;6.32;;;;;;;;;;5030250;28;20072;-67
2023/04/07 08:31:54;;;;;;;10.23;6.97;;;;;;;;;;5030615;28;20395;-67
2023/04/07 08:34:21;;;;;;;10.65;6.40;;;;;;;;;;5030013;28;20041;-67
2023/04/07 08:36:47;;;;;;;9.32;6.40;;;;;;;;;;5030381;28;20052;-67
2023/04/07 08:39:15;;;;;;;9.02;5.90;;;;;;;;;;5030424;28;20053;-67
2023/04/07 08:41:43;;;;;;;8.35;5.55;;;;;;;;;;5030387;28;20136;-67
2023/04/07 08:44:10;;;;;;;7.28;5.68;;;;;;;;;;5029565;28;20053;-67
2023/04/07 08:46:39;;;;;;;8.60;5.93;;;;;;;;;;5030452;28;20128;-67
2023/04/07 08:49:09;;;;;;;9.77;6.35;;;;;;;;;;5029962;28;20045;-67
2023/04/07 08:51:38;;;;;;;7.85;5.68;;;;;;;;;;5030374;28;20050;-68
2023/04/07 08:54:09;;;;;;;9.52;6.15;;;;;;;;;;5030037;28;20054;-67
2023/04/07 08:56:40;;;;;;;7.68;5.53;;;;;;;;;;5029758;28;20555;-67
2023/04/07 08:59:07;;;;;;;8.15;5.75;;;;;;;;;;5030193;28;20506;-67
2023/04/07 09:01:36;;;;;;;9.98;5.90;;;;;;;;;;5029311;28;20132;-68
2023/04/07 09:04:03;;;;;;;10.13;5.75;;;;;;;;;;5029423;28;20052;-69
2023/04/07 09:06:30;;;;;;;8.70;5.43;;;;;;;;;;5029758;28;20462;-67
2023/04/07 09:08:57;;;;;;;9.05;5.53;;;;;;;;;;5029702;28;20053;-67
2023/04/07 09:11:24;;;;;;;7.63;5.55;;;;;;;;;;5029746;28;20052;-67
2023/04/07 09:13:52;;;;;;;7.70;5.35;;;;;;;;;;5030090;28;20434;-67
2023/04/07 09:16:19;;;;;;;8.02;5.22;;;;;;;;;;5029700;28;20050;-67
2023/04/07 09:18:45;;;;;;;7.43;4.90;;;;;;;;;;5029626;28;20045;-67
2023/04/07 09:21:12;;;;;;;7.13;4.80;;;;;;;;;;5029947;28;20068;-66
2023/04/07 09:23:41;;;;;;;9.38;5.07;;;;;;;;;;5029520;28;20136;-66
2023/04/07 09:26:23;;;;;;;9.05;5.10;;;;;;;;;;5029803;28;20123;-66
2023/04/07 09:28:54;;;;;;;8.23;5.37;;;;;;;;;;5029859;28;20523;-66
2023/04/07 09:31:21;;;;;;;8.90;5.22;;;;;;;;;;5029877;28;20056;-66
2023/04/07 09:33:48;;;;;;;6.15;4.40;;;;;;;;;;5029556;28;20492;-66
2023/04/07 09:36:15;;;;;;;8.23;4.90;;;;;;;;;;5029200;28;20128;-66
2023/04/07 09:38:43;;;;;;;6.15;4.03;;;;;;;;;;5030569;28;20048;-66
2023/04/07 09:41:12;;;;;;;7.15;3.75;;;;;;;;;;5033709;28;20134;-68
2023/04/07 09:43:40;;;;;;;6.18;3.83;;;;;;;;;;5033693;28;20042;-67
2023/04/07 09:46:12;;;;;;;5.93;4.10;;;;;;;;;;5033265;28;20061;-67
2023/04/07 09:48:40;;;;;;;9.40;3.95;;;;;;;;;;5033148;28;20512;-69
2023/04/07 09:51:08;;;;;;;5.47;4.00;;;;;;;;;;5033484;28;20054;-68
2023/04/07 09:53:43;;;;;;;7.70;4.45;;;;;;;;;;5033521;28;20049;-69
2023/04/07 09:56:10;;;;;;;7.45;3.88;;;;;;;;;;5033189;28;20053;-66
2023/04/07 09:58:38;;;;;;;6.97;3.50;;;;;;;;;;5032925;28;20041;-68
2023/04/07 10:01:07;;;;;;;4.53;3.00;;;;;;;;;;5033080;28;20419;-67
2023/04/07 10:03:35;;;;;;;8.35;3.50;;;;;;;;;;5032927;28;20053;-67
2023/04/07 10:06:01;;;;;;;5.05;3.53;;;;;;;;;;5033294;28;20046;-67
2023/04/07 10:08:29;;;;;;;6.38;3.42;;;;;;;;;;5032678;28;20052;-67
2023/04/07 10:10:56;;;;;;;4.10;3.15;;;;;;;;;;5033263;28;20045;-69
2023/04/07 10:13:24;;;;;;;6.38;2.97;;;;;;;;;;5032771;28;20136;-66
2023/04/07 10:15:52;;;;;;;6.00;3.58;;;;;;;;;;5032744;28;20045;-66
2023/04/07 10:18:21;;;;;;;6.03;3.35;;;;;;;;;;5032607;28;20500;-67
2023/04/07 10:20:50;;;;;;;5.57;3.53;;;;;;;;;;5033245;28;20045;-67
2023/04/07 10:23:22;;;;;;;6.22;3.17;;;;;;;;;;5032718;28;20046;-66
2023/04/07 10:25:51;;;;;;;5.15;3.60;;;;;;;;;;5032947;28;20641;-66
2023/04/07 10:28:21;;;;;;;9.32;3.83;;;;;;;;;;5032176;28;20046;-66
2023/04/07 10:30:48;;;;;;;8.50;3.85;;;;;;;;;;5033519;28;20407;-66
2023/04/07 10:33:17;;;;;;;5.78;4.00;;;;;;;;;;5032933;28;20055;-66
2023/04/07 10:36:06;;;;;;;6.78;4.30;;;;;;;;;;5044840;22;20064;-65
2023/04/07 10:38:33;;;;;;;7.03;4.13;;;;;;;;;;5032119;28;20049;-65
2023/04/07 10:40:59;;;;;;;5.20;4.00;;;;;;;;;;5032485;28;20426;-65
2023/04/07 10:43:40;;;;;;;5.55;3.58;;;;;;;;;;5032334;28;20131;-65
2023/04/07 10:46:07;;;;;;;6.85;4.07;;;;;;;;;;5032504;28;20104;-65
2023/04/07 10:48:33;;;;;;;7.63;3.85;;;;;;;;;;5031861;28;20049;-65
2023/04/07 10:51:17;;;;;;;5.85;4.15;;;;;;;;;;5031633;28;20052;-65
2023/04/07 10:54:17;;;;;;;6.63;4.20;;;;;;;;;;5032149;28;20049;-65
2023/04/07 10:57:10;;;;;;;7.28;4.22;;;;;;;;;;5032090;28;20053;-65
2023/04/07 10:59:38;;;;;;;5.68;4.00;;;;;;;;;;5031669;28;20053;-65
2023/04/07 11:02:33;;;;;;;7.35;3.92;;;;;;;;;;5032419;28;20127;-65
2023/04/07 11:05:00;;;;;;;7.40;4.10;;;;;;;;;;5026666;28;20096;-65
2023/04/07 11:07:48;;;;;;;7.35;3.78;;;;;;;;;;5031993;28;20053;-65
2023/04/07 11:10:17;;;;;;;5.95;3.28;;;;;;;;;;5031848;28;20068;-65
2023/04/07 11:12:44;;;;;;;4.78;3.50;;;;;;;;;;5032076;28;20041;-65
2023/04/07 11:15:19;;;;;;;4.25;2.90;;;;;;;;;;5031493;28;20099;-65
2023/04/07 11:17:45;;;;;;;5.13;3.38;;;;;;;;;;5031742;28;20054;-65
2023/04/07 11:20:12;;;;;;;5.30;3.08;;;;;;;;;;5031518;28;20041;-65
2023/04/07 11:22:38;;;;;;;6.50;3.17;;;;;;;;;;5031668;28;20129;-65
2023/04/07 11:25:20;;;;;;;4.30;2.85;;;;;;;;;;5031194;28;20128;-65
2023/04/07 11:27:48;;;;;;;4.00;3.10;;;;;;;;;;5031584;28;20103;-65
2023/04/07 11:30:16;;;;;;;5.68;3.30;;;;;;;;;;5031880;28;20057;-65
2023/04/07 11:32:48;;;;;;;5.03;3.38;;;;;;;;;;5031677;28;20553;-65
2023/04/07 11:35:15;;;;;;;4.65;3.25;;;;;;;;;;5031367;28;20055;-65
2023/04/07 11:37:42;;;;;;;6.97;3.42;;;;;;;;;;5031756;28;20406;-65
2023/04/07 11:40:10;;;;;;;5.13;3.65;;;;;;;;;;5031340;28;20048;-65
2023/04/07 11:42:40;;;;;;;4.80;3.33;;;;;;;;;;5031486;28;20136;-65
2023/04/07 11:45:16;;;;;;;5.63;3.00;;;;;;;;;;5030885;28;20426;-65
2023/04/07 11:47:43;;;;;;;5.90;2.97;;;;;;;;;;5031172;28;20050;-65
2023/04/07 11:50:10;;;;;;;5.60;2.85;;;;;;;;;;5031150;28;20049;-65
2023/04/07 11:52:43;;;;;;;4.65;3.10;;;;;;;;;;5031112;28;20045;-65
2023/04/07 11:55:18;;;;;;;5.85;3.22;;;;;;;;;;5030680;28;20064;-65
2023/04/07 11:57:46;;;;;;;5.57;3.67;;;;;;;;;;5030803;28;20107;-65
2023/04/07 12:00:14;;;;;;;8.77;4.00;;;;;;;;;;5030927;28;20495;-65
2023/04/07 12:02:41;;;;;;;6.07;3.20;;;;;;;;;;5030577;28;20049;-65
2023/04/07 12:05:09;;;;;;;6.38;3.20;;;;;;;;;;5030500;28;20049;-64
2023/04/07 12:07:36;;;;;;;5.35;3.65;;;;;;;;;;5030926;28;20045;-65
2023/04/07 12:10:20;;;;;;;5.05;2.97;;;;;;;;;;5030939;28;20045;-64
2023/04/07 12:12:48;;;;;;;3.85;2.88;;;;;;;;;;5030930;28;20049;-64
2023/04/07 12:15:15;;;;;;;7.25;3.22;;;;;;;;;;5030523;28;20052;-64
2023/04/07 12:17:45;;;;;;;3.95;2.72;;;;;;;;;;5030307;28;20045;-64
2023/04/07 12:20:12;;;;;;;4.60;2.80;;;;;;;;;;5030900;28;20108;-64
2023/04/07 12:22:38;;;;;;;4.10;2.83;;;;;;;;;;5030470;28;20053;-64
2023/04/07 12:25:06;;;;;;;4.38;3.05;;;;;;;;;;5030217;28;20407;-64
2023/04/07 12:27:32;;;;;;;6.53;3.08;;;;;;;;;;5030446;28;20049;-64
2023/04/07 12:30:00;;;;;;;3.08;2.40;;;;;;;;;;5030480;28;20048;-65
2023/04/07 12:32:27;;;;;;;4.32;2.70;;;;;;;;;;5030444;28;20399;-64
2023/04/07 12:34:54;;;;;;;3.13;2.40;;;;;;;;;;5030353;28;20423;-64
2023/04/07 12:37:21;;;;;;;4.07;2.28;;;;;;;;;;5029959;28;20045;-65
2023/04/07 12:39:47;;;;;;;4.57;2.30;;;;;;;;;;5030569;28;20041;-65
2023/04/07 12:42:15;;;;;;;4.43;2.22;;;;;;;;;;5030921;28;20104;-65
2023/04/07 12:44:42;;;;;;;4.22;2.67;;;;;;;;;;5030369;28;20053;-64
2023/04/07 12:47:11;;;;;;;4.10;2.17;;;;;;;;;;5029805;28;20041;-65
2023/04/07 12:49:37;;;;;;;3.55;2.25;;;;;;;;;;5030435;28;20144;-65
2023/04/07 12:52:05;;;;;;;2.65;1.65;;;;;;;;;;5029882;28;20050;-64
2023/04/07 12:54:32;;;;;;;3.17;2.15;;;;;;;;;;5030098;28;20049;-65
2023/04/07 12:56:58;;;;;;;3.95;1.63;;;;;;;;;;5029793;28;20513;-64
2023/04/07 12:59:25;;;;;;;2.35;1.80;;;;;;;;;;5030567;28;20052;-64
2023/04/07 13:01:53;;;;;;;2.97;1.88;;;;;;;;;;5030178;28;20045;-64
2023/04/07 13:04:21;;;;;;;3.13;2.05;;;;;;;;;;5029853;28;20042;-64
2023/04/07 13:06:48;;;;;;;2.72;1.80;;;;;;;;;;5030140;28;20418;-64
2023/04/07 13:09:15;;;;;;;2.38;1.42;;;;;;;;;;5029857;28;20049;-64
2023/04/07 13:11:41;;;;;;;2.67;1.80;;;;;;;;;;5030123;28;20041;-64
2023/04/07 13:14:08;;;;;;;3.15;1.60;;;;;;;;;;5028784;28;20049;-64
2023/04/07 13:16:36;;;;;;;3.55;1.95;;;;;;;;;;5029783;28;20058;-64
2023/04/07 13:19:03;;;;;;;2.70;1.80;;;;;;;;;;5029135;28;20049;-64
2023/04/07 13:21:31;;;;;;;2.90;1.98;;;;;;;;;;5030194;28;20052;-64
2023/04/07 13:23:57;;;;;;;2.70;1.85;;;;;;;;;;5029605;28;20045;-64
2023/04/07 13:26:25;;;;;;;5.28;2.50;;;;;;;;;;5029808;28;20041;-65
2023/04/07 13:28:51;;;;;;;3.78;1.70;;;;;;;;;;5029338;28;20049;-64
2023/04/07 13:31:20;;;;;;;2.75;1.67;;;;;;;;;;5029916;28;20057;-64
2023/04/07 13:33:47;;;;;;;5.65;1.90;;;;;;;;;;5029065;28;20132;-65
2023/04/07 13:36:13;;;;;;;2.05;1.60;;;;;;;;;;5030106;28;20049;-64
2023/04/07 13:38:42;;;;;;;4.40;1.80;;;;;;;;;;5029227;28;20061;-64
2023/04/07 13:41:08;;;;;;;3.70;1.67;;;;;;;;;;5029948;28;20408;-64
2023/04/07 13:43:35;;;;;;;3.08;1.77;;;;;;;;;;5029278;28;20056;-64
2023/04/07 13:46:02;;;;;;;4.22;1.52;;;;;;;;;;5029672;28;20053;-64
2023/04/07 13:48:28;;;;;;;5.13;2.13;;;;;;;;;;5029284;28;20426;-64
2023/04/07 13:50:55;;;;;;;3.05;1.60;;;;;;;;;;5030144;28;20041;-64
2023/04/07 13:53:21;;;;;;;1.77;1.23;;;;;;;;;;5029613;28;20045;-64
2023/04/07 13:55:49;;;;;;;2.63;1.33;;;;;;;;;;5029409;28;20489;-64
2023/04/07 13:58:17;;;;;;;3.70;2.30;;;;;;;;;;5029387;28;20600;-65
2023/04/07 14:00:43;;;;;;;4.70;3.00;;;;;;;;;;5029366;28;20474;-65
2023/04/07 14:03:10;;;;;;;4.05;2.72;;;;;;;;;;5029667;28;20049;-64
2023/04/07 14:05:36;;;;;;;4.68;2.67;;;;;;;;;;5029270;28;20053;-65
2023/04/07 14:08:03;;;;;;;4.32;2.67;;;;;;;;;;5029319;28;20136;-64
2023/04/07 14:10:30;;;;;;;7.15;3.42;;;;;;;;;;5029311;28;20052;-65
2023/04/07 14:12:58;;;;;;;3.25;2.85;;;;;;;;;;5029150;28;20176;-65
2023/04/07 14:15:25;;;;;;;4.30;2.85;;;;;;;;;;5029027;28;20045;-64
2023/04/07 14:17:51;;;;;;;3.47;2.88;;;;;;;;;;5029366;28;20468;-65
2023/04/07 14:20:18;;;;;;;4.93;3.20;;;;;;;;;;5029315;28;20132;-65
2023/04/07 14:22:45;;;;;;;4.28;3.58;;;;;;;;;;5029570;28;20490;-65
2023/04/07 14:25:11;;;;;;;6.03;4.18;;;;;;;;;;5031007;28;20045;-65
2023/04/07 14:27:38;;;;;;;4.32;3.30;;;;;;;;;;5032536;28;20050;-65
2023/04/07 14:30:07;;;;;;;5.00;3.80;;;;;;;;;;5032284;28;20049;-65
2023/04/07 14:32:34;;;;;;;4.68;3.40;;;;;;;;;;5032735;28;20049;-65
2023/04/07 14:35:00;;;;;;;5.22;3.78;;;;;;;;;;5032437;28;20516;-65
2023/04/07 14:37:27;;;;;;;4.88;3.40;;;;;;;;;;5032945;28;20491;-65